Time;durP1;ratioP1;P1;durP2;ratioP2;P2;SDS_P1;SDS_P2;PMS_P1;PMS_P2;Temp;Humidity;BMP_temperature;BMP_pressure;BME280_temperature;BME280_humidity;BME280_pressure;Samples;Min_cycle;Max_cycle;Signal;HPM_P1;HPM_P2
2023/09/28 00:03:17;;;;;;;5.82;2.10;;;;;;;;;;5004081;28;20111;-70
2023/09/28 00:05:43;;;;;;;2.47;1.67;;;;;;;;;;5011924;28;20053;-69
2023/09/28 00:08:09;;;;;;;4.00;2.00;;;;;;;;;;5012866;28;20068;-70
2023/09/28 00:10:35;;;;;;;4.47;2.03;;;;;;;;;;5013921;28;20443;-69
2023/09/28 00:13:01;;;;;;;5.80;2.00;;;;;;;;;;5012064;28;20103;-69
2023/09/28 00:15:29;;;;;;;4.25;1.90;;;;;;;;;;5016729;28;20622;-71
2023/09/28 00:17:55;;;;;;;5.95;1.98;;;;;;;;;;4989336;28;20406;-71
2023/09/28 00:20:22;;;;;;;4.78;1.95;;;;;;;;;;5004162;28;20055;-69
2023/09/28 00:22:51;;;;;;;5.43;2.17;;;;;;;;;;5015449;28;20050;-70
2023/09/28 00:25:19;;;;;;;4.22;2.13;;;;;;;;;;4992520;28;20045;-69
2023/09/28 00:27:49;;;;;;;4.97;2.08;;;;;;;;;;5009838;28;20050;-69
2023/09/28 00:30:20;;;;;;;8.73;2.13;;;;;;;;;;5011359;28;20521;-70
2023/09/28 00:32:47;;;;;;;4.25;2.20;;;;;;;;;;5014524;28;20050;-69
2023/09/28 00:35:15;;;;;;;6.20;2.00;;;;;;;;;;5009272;28;20132;-70
2023/09/28 00:37:41;;;;;;;4.38;2.10;;;;;;;;;;5009007;28;20066;-69
2023/09/28 00:40:20;;;;;;;12.23;2.60;;;;;;;;;;5010689;28;20475;-68
2023/09/28 00:42:51;;;;;;;3.10;1.88;;;;;;;;;;5009560;28;20054;-70
2023/09/28 00:45:22;;;;;;;6.28;2.30;;;;;;;;;;5007631;28;20132;-70
2023/09/28 00:47:54;;;;;;;4.53;2.40;;;;;;;;;;4988716;28;20057;-70
2023/09/28 00:50:21;;;;;;;9.40;2.58;;;;;;;;;;5007993;28;20709;-70
2023/09/28 00:52:58;;;;;;;5.05;2.22;;;;;;;;;;5008270;28;20371;-70
2023/09/28 00:55:24;;;;;;;6.82;2.83;;;;;;;;;;4998128;28;20046;-73
2023/09/28 00:57:51;;;;;;;5.95;2.92;;;;;;;;;;5002218;28;20077;-70
2023/09/28 01:00:24;;;;;;;6.88;2.97;;;;;;;;;;5007227;28;20054;-69
2023/09/28 01:02:51;;;;;;;6.10;2.90;;;;;;;;;;5005321;28;20065;-69
2023/09/28 01:05:22;;;;;;;6.80;2.90;;;;;;;;;;5008024;28;20065;-69
2023/09/28 01:07:48;;;;;;;9.70;2.70;;;;;;;;;;5007800;28;20145;-69
2023/09/28 01:10:23;;;;;;;6.53;2.63;;;;;;;;;;5010153;28;20088;-68
2023/09/28 01:12:52;;;;;;;7.30;3.28;;;;;;;;;;5011450;28;20129;-69
2023/09/28 01:15:17;;;;;;;8.45;3.38;;;;;;;;;;5016542;28;20136;-69
2023/09/28 01:17:44;;;;;;;8.07;3.65;;;;;;;;;;5007813;28;20045;-69
2023/09/28 01:20:34;;;;;;;9.55;3.25;;;;;;;;;;5007143;28;20080;-69
2023/09/28 01:23:01;;;;;;;13.25;3.33;;;;;;;;;;5007774;28;20130;-70
2023/09/28 01:25:27;;;;;;;8.27;3.40;;;;;;;;;;5008281;28;20263;-70
2023/09/28 01:27:54;;;;;;;6.38;3.42;;;;;;;;;;5006277;28;20259;-69
2023/09/28 01:30:20;;;;;;;6.90;3.25;;;;;;;;;;5004339;28;20054;-71
2023/09/28 01:32:46;;;;;;;10.20;3.40;;;;;;;;;;5005270;28;20642;-68
2023/09/28 01:35:12;;;;;;;8.10;3.42;;;;;;;;;;5001206;28;20038;-70
2023/09/28 01:37:58;;;;;;;7.60;3.30;;;;;;;;;;5004188;28;20057;-71
2023/09/28 01:40:24;;;;;;;8.07;2.83;;;;;;;;;;5005357;28;20608;-69
2023/09/28 01:42:50;;;;;;;5.50;2.67;;;;;;;;;;4990948;28;20060;-69
2023/09/28 01:45:17;;;;;;;6.68;2.45;;;;;;;;;;5005973;28;20048;-69
2023/09/28 01:47:43;;;;;;;6.38;2.30;;;;;;;;;;5009911;28;20417;-72
2023/09/28 01:50:09;;;;;;;4.20;2.47;;;;;;;;;;5000175;28;20049;-70
2023/09/28 01:52:35;;;;;;;5.68;2.60;;;;;;;;;;5006784;28;20081;-69
2023/09/28 01:55:02;;;;;;;5.35;2.55;;;;;;;;;;5005788;28;20057;-70
2023/09/28 01:57:28;;;;;;;5.43;2.63;;;;;;;;;;5001172;28;20049;-68
2023/09/28 01:59:54;;;;;;;3.55;2.20;;;;;;;;;;5000673;28;20073;-69
2023/09/28 02:02:21;;;;;;;5.25;2.13;;;;;;;;;;4999215;28;20119;-69
2023/09/28 02:04:47;;;;;;;4.43;2.50;;;;;;;;;;5003299;28;20493;-68
2023/09/28 02:07:13;;;;;;;5.43;2.30;;;;;;;;;;5005950;28;20506;-69
2023/09/28 02:09:41;;;;;;;4.97;2.00;;;;;;;;;;5006195;28;20058;-68
2023/09/28 02:12:07;;;;;;;3.72;2.00;;;;;;;;;;5003618;28;20065;-70
2023/09/28 02:14:33;;;;;;;7.43;2.20;;;;;;;;;;5007208;28;20049;-69
2023/09/28 02:16:59;;;;;;;4.47;2.10;;;;;;;;;;5001794;28;20049;-69
2023/09/28 02:19:25;;;;;;;4.28;2.15;;;;;;;;;;5004725;28;20049;-69
2023/09/28 02:21:51;;;;;;;5.40;2.08;;;;;;;;;;5007180;28;20084;-67
2023/09/28 02:24:17;;;;;;;4.07;2.30;;;;;;;;;;4997258;28;20046;-69
2023/09/28 02:26:44;;;;;;;6.55;2.58;;;;;;;;;;5003402;28;20135;-69
2023/09/28 02:29:12;;;;;;;5.88;2.50;;;;;;;;;;5006264;28;20049;-69
2023/09/28 02:31:42;;;;;;;5.10;2.13;;;;;;;;;;5008072;28;20077;-69
2023/09/28 02:34:08;;;;;;;6.75;2.75;;;;;;;;;;5002925;28;20062;-69
2023/09/28 02:36:38;;;;;;;9.95;2.50;;;;;;;;;;5005510;28;20049;-68
2023/09/28 02:39:05;;;;;;;8.68;2.85;;;;;;;;;;5007128;28;20045;-70
2023/09/28 02:41:31;;;;;;;8.73;2.95;;;;;;;;;;5003792;28;20049;-69
2023/09/28 02:43:57;;;;;;;6.88;2.63;;;;;;;;;;5003514;28;20058;-68
2023/09/28 02:46:25;;;;;;;8.98;2.92;;;;;;;;;;5005913;28;20058;-68
2023/09/28 02:48:51;;;;;;;8.38;2.97;;;;;;;;;;5005793;28;20088;-69
2023/09/28 02:51:17;;;;;;;6.80;2.60;;;;;;;;;;5006544;28;20041;-68
2023/09/28 02:53:44;;;;;;;7.50;2.63;;;;;;;;;;5001096;28;20050;-69
2023/09/28 02:56:13;;;;;;;7.63;2.83;;;;;;;;;;5006508;28;20070;-69
2023/09/28 02:58:39;;;;;;;5.80;2.40;;;;;;;;;;5000116;28;20093;-70
2023/09/28 03:01:05;;;;;;;7.43;2.70;;;;;;;;;;5005729;28;20049;-71
2023/09/28 03:03:32;;;;;;;8.10;2.42;;;;;;;;;;5002996;28;20046;-70
2023/09/28 03:05:58;;;;;;;5.82;3.05;;;;;;;;;;5005535;28;20054;-69
2023/09/28 03:08:24;;;;;;;7.15;2.60;;;;;;;;;;5006937;28;20056;-69
2023/09/28 03:10:53;;;;;;;8.75;2.80;;;;;;;;;;5006083;28;20049;-68
2023/09/28 03:13:19;;;;;;;8.07;2.72;;;;;;;;;;5002140;28;20572;-69
2023/09/28 03:15:46;;;;;;;6.93;2.90;;;;;;;;;;5003209;28;20105;-69
2023/09/28 03:18:14;;;;;;;10.30;2.90;;;;;;;;;;5002079;28;20673;-69
2023/09/28 03:20:43;;;;;;;7.10;2.70;;;;;;;;;;5004404;28;20061;-70
2023/09/28 03:23:09;;;;;;;8.35;2.75;;;;;;;;;;5007359;28;20050;-70
2023/09/28 03:25:35;;;;;;;9.60;2.90;;;;;;;;;;5007176;28;20054;-69
2023/09/28 03:28:01;;;;;;;8.27;3.03;;;;;;;;;;5009564;28;20077;-69
2023/09/28 03:30:28;;;;;;;9.52;2.63;;;;;;;;;;4998429;28;20062;-69
2023/09/28 03:32:56;;;;;;;15.70;3.47;;;;;;;;;;5004508;28;20523;-70
2023/09/28 03:35:23;;;;;;;6.63;2.45;;;;;;;;;;5001063;28;20045;-68
2023/09/28 03:37:58;;;;;;;10.38;2.90;;;;;;;;;;5005570;28;20331;-68
2023/09/28 03:40:33;;;;;;;6.13;2.70;;;;;;;;;;5002449;28;20552;-68
2023/09/28 03:42:59;;;;;;;;;;;;;;;;;;4997973;28;20043;-68
2023/09/28 03:45:25;;;;;;;8.65;2.75;;;;;;;;;;5007344;28;19921;-68
2023/09/28 03:47:52;;;;;;;12.02;3.40;;;;;;;;;;4999189;28;20046;-68
2023/09/28 03:50:19;;;;;;;8.35;3.10;;;;;;;;;;5007670;28;20404;-68
2023/09/28 03:52:45;;;;;;;7.22;2.60;;;;;;;;;;5005907;28;20112;-69
2023/09/28 03:55:18;;;;;;;6.55;2.58;;;;;;;;;;5006145;28;20116;-69
2023/09/28 03:57:44;;;;;;;8.73;3.78;;;;;;;;;;4999329;28;20050;-69
2023/09/28 04:00:14;;;;;;;6.10;2.70;;;;;;;;;;5001931;28;20459;-68
2023/09/28 04:02:42;;;;;;;8.38;2.97;;;;;;;;;;5002411;28;20057;-71
2023/09/28 04:05:09;;;;;;;8.25;2.72;;;;;;;;;;5004384;28;20116;-69
2023/09/28 04:07:35;;;;;;;8.35;2.90;;;;;;;;;;5006751;28;20490;-70
2023/09/28 04:10:03;;;;;;;10.55;3.15;;;;;;;;;;4986795;28;20593;-70
2023/09/28 04:12:29;;;;;;;7.55;2.47;;;;;;;;;;5005946;28;20046;-70
2023/09/28 04:14:55;;;;;;;10.65;3.08;;;;;;;;;;5002635;28;20082;-69
2023/09/28 04:17:21;;;;;;;8.65;2.53;;;;;;;;;;5004144;28;20041;-70
2023/09/28 04:19:49;;;;;;;8.35;3.00;;;;;;;;;;5000816;28;20038;-68
2023/09/28 04:22:17;;;;;;;9.38;3.05;;;;;;;;;;5005255;28;20490;-70
2023/09/28 04:24:43;;;;;;;9.73;3.20;;;;;;;;;;4987203;28;20052;-69
2023/09/28 04:27:49;;;;;;;9.43;3.15;;;;;;;;;;5006635;28;20057;-70
2023/09/28 04:31:29;;;;;;;6.97;3.28;;;;;;;;;;5002604;28;20054;-70
2023/09/28 04:35:10;;;;;;;6.70;3.15;;;;;;;;;;5004121;28;20049;-69
2023/09/28 04:38:50;;;;;;;9.48;3.30;;;;;;;;;;5000803;28;20827;-70
2023/09/28 04:42:33;;;;;;;10.85;3.67;;;;;;;;;;5002628;28;20061;-71
2023/09/28 04:46:15;;;;;;;10.05;3.10;;;;;;;;;;5002499;28;20048;-68
2023/09/28 04:49:55;;;;;;;10.75;3.75;;;;;;;;;;5002110;28;20100;-68
2023/09/28 04:53:36;;;;;;;10.82;3.50;;;;;;;;;;5000667;28;20263;-68
2023/09/28 04:57:16;;;;;;;11.05;2.88;;;;;;;;;;5000299;28;20049;-69
2023/09/28 05:00:56;;;;;;;9.68;3.50;;;;;;;;;;5002020;28;20386;-70
2023/09/28 05:04:37;;;;;;;8.45;3.85;;;;;;;;;;5008726;28;20049;-69
2023/09/28 05:08:17;;;;;;;14.30;4.43;;;;;;;;;;5004484;28;20418;-70
2023/09/28 05:11:59;;;;;;;10.10;4.30;;;;;;;;;;5007041;28;20088;-69
2023/09/28 05:15:38;;;;;;;12.05;3.80;;;;;;;;;;4998983;28;20188;-69
2023/09/28 05:19:18;;;;;;;7.85;3.60;;;;;;;;;;5007884;28;20506;-68
2023/09/28 05:22:27;;;;;;;10.00;3.83;;;;;;;;;;5001918;28;20100;-70
2023/09/28 05:24:54;;;;;;;16.35;4.32;;;;;;;;;;4999743;28;20058;-70
2023/09/28 05:27:21;;;;;;;9.45;3.63;;;;;;;;;;5000514;28;20077;-71
2023/09/28 05:29:47;;;;;;;11.02;3.40;;;;;;;;;;5008712;28;20043;-70
2023/09/28 05:32:13;;;;;;;15.30;4.10;;;;;;;;;;5004770;28;20528;-69
2023/09/28 05:34:40;;;;;;;17.08;4.25;;;;;;;;;;4999847;28;20556;-70
2023/09/28 05:37:07;;;;;;;8.13;3.90;;;;;;;;;;5003945;28;20053;-71
2023/09/28 05:39:33;;;;;;;9.65;4.00;;;;;;;;;;4992816;28;20049;-70
2023/09/28 05:42:01;;;;;;;10.30;3.78;;;;;;;;;;5001077;28;20069;-70
2023/09/28 05:44:30;;;;;;;14.77;3.55;;;;;;;;;;4999636;28;20054;-70
2023/09/28 05:46:56;;;;;;;16.42;4.35;;;;;;;;;;5007746;28;20064;-69
2023/09/28 05:49:26;;;;;;;20.33;5.68;;;;;;;;;;5000829;28;20458;-70
2023/09/28 05:51:54;;;;;;;18.92;5.03;;;;;;;;;;5004254;28;20064;-68
2023/09/28 05:54:22;;;;;;;17.33;5.18;;;;;;;;;;5007451;28;20137;-68
2023/09/28 05:56:48;;;;;;;13.18;4.57;;;;;;;;;;5003847;28;20078;-68
2023/09/28 05:59:15;;;;;;;13.63;4.45;;;;;;;;;;4975873;28;20050;-68
2023/09/28 06:01:42;;;;;;;16.67;4.68;;;;;;;;;;4990303;28;20057;-69
2023/09/28 06:04:08;;;;;;;13.25;3.97;;;;;;;;;;5007497;28;20058;-69
2023/09/28 06:06:34;;;;;;;12.60;4.30;;;;;;;;;;5003514;28;20042;-69
2023/09/28 06:09:01;;;;;;;15.07;5.07;;;;;;;;;;5004359;28;20553;-71
2023/09/28 06:11:27;;;;;;;10.13;4.30;;;;;;;;;;5005874;28;20084;-70
2023/09/28 06:13:54;;;;;;;20.50;5.65;;;;;;;;;;4987909;28;20045;-70
2023/09/28 06:16:19;;;;;;;17.25;5.50;;;;;;;;;;5003118;28;20039;-69
2023/09/28 06:18:46;;;;;;;14.35;4.68;;;;;;;;;;5005140;28;20064;-69
2023/09/28 06:21:12;;;;;;;10.45;4.32;;;;;;;;;;4998439;28;20080;-75
2023/09/28 06:23:41;;;;;;;15.55;4.57;;;;;;;;;;4999183;28;20060;-67
2023/09/28 06:26:07;;;;;;;13.32;4.47;;;;;;;;;;5005473;28;20061;-68
2023/09/28 06:28:33;;;;;;;16.45;4.55;;;;;;;;;;5002925;28;20046;-68
2023/09/28 06:30:59;;;;;;;17.75;4.18;;;;;;;;;;4984445;28;20050;-69
2023/09/28 06:33:25;;;;;;;12.05;4.70;;;;;;;;;;5001188;28;20056;-69
2023/09/28 06:35:51;;;;;;;13.45;4.95;;;;;;;;;;4995448;28;20054;-67
2023/09/28 06:38:18;;;;;;;14.77;4.75;;;;;;;;;;5003588;28;20053;-70
2023/09/28 06:40:48;;;;;;;15.90;5.30;;;;;;;;;;5008859;28;20153;-64
2023/09/28 06:43:17;;;;;;;13.88;4.30;;;;;;;;;;5006615;28;20050;-66
2023/09/28 06:45:44;;;;;;;9.57;4.03;;;;;;;;;;4984865;28;20056;-65
2023/09/28 06:48:12;;;;;;;8.25;4.03;;;;;;;;;;5004489;28;20046;-69
2023/09/28 06:50:39;;;;;;;19.70;4.43;;;;;;;;;;4991380;28;20056;-64
2023/09/28 06:53:09;;;;;;;16.02;4.05;;;;;;;;;;4992073;28;20068;-64
2023/09/28 06:55:36;;;;;;;13.13;4.40;;;;;;;;;;5007467;28;20045;-69
2023/09/28 06:58:06;;;;;;;18.42;4.38;;;;;;;;;;5006161;28;20053;-70
2023/09/28 07:00:34;;;;;;;15.30;4.90;;;;;;;;;;5008072;28;20038;-66
2023/09/28 07:03:02;;;;;;;14.90;5.10;;;;;;;;;;4992601;28;20064;-66
2023/09/28 07:05:28;;;;;;;16.85;4.50;;;;;;;;;;4997055;28;20061;-66
2023/09/28 07:07:55;;;;;;;19.83;5.10;;;;;;;;;;4990157;28;20133;-67
2023/09/28 07:10:20;;;;;;;21.23;5.25;;;;;;;;;;4990226;28;20132;-65
2023/09/28 07:12:46;;;;;;;16.05;5.82;;;;;;;;;;4995325;28;20199;-65
2023/09/28 07:15:12;;;;;;;15.00;5.35;;;;;;;;;;5005496;28;20100;-66
2023/09/28 07:17:39;;;;;;;19.85;5.43;;;;;;;;;;4988180;28;20111;-69
2023/09/28 07:20:05;;;;;;;34.40;6.50;;;;;;;;;;4996437;28;20054;-67
2023/09/28 07:22:33;;;;;;;22.45;7.07;;;;;;;;;;4984196;28;20124;-66
2023/09/28 07:24:59;;;;;;;17.58;6.53;;;;;;;;;;5004282;28;20501;-64
2023/09/28 07:27:31;;;;;;;24.35;6.82;;;;;;;;;;5004065;28;20058;-67
2023/09/28 07:29:57;;;;;;;25.10;6.20;;;;;;;;;;5001857;28;20478;-65
2023/09/28 07:32:24;;;;;;;21.33;6.32;;;;;;;;;;5005329;28;20052;-66
2023/09/28 07:34:49;;;;;;;20.27;6.10;;;;;;;;;;5004676;28;20054;-65
2023/09/28 07:37:17;;;;;;;22.00;5.65;;;;;;;;;;4994147;28;20426;-66
2023/09/28 07:39:43;;;;;;;26.70;6.22;;;;;;;;;;5005712;28;20336;-64
2023/09/28 07:42:10;;;;;;;33.03;8.02;;;;;;;;;;5002449;28;20062;-65
2023/09/28 07:44:40;;;;;;;31.08;6.97;;;;;;;;;;5002583;28;20107;-66
2023/09/28 07:47:08;;;;;;;25.20;6.97;;;;;;;;;;5003667;28;20383;-66
2023/09/28 07:49:34;;;;;;;22.52;6.80;;;;;;;;;;4989235;28;20069;-64
2023/09/28 07:52:02;;;;;;;18.45;6.40;;;;;;;;;;5001014;28;20112;-66
2023/09/28 07:54:28;;;;;;;11.75;5.22;;;;;;;;;;5003413;28;20054;-65
2023/09/28 07:56:55;;;;;;;13.30;5.68;;;;;;;;;;5004897;28;20348;-64
2023/09/28 07:59:23;;;;;;;13.18;5.38;;;;;;;;;;5004137;28;20148;-66
2023/09/28 08:01:50;;;;;;;18.77;5.97;;;;;;;;;;4993164;28;20100;-65
2023/09/28 08:04:16;;;;;;;14.88;5.00;;;;;;;;;;5003638;28;20418;-63
2023/09/28 08:06:42;;;;;;;16.42;5.05;;;;;;;;;;4993710;28;20432;-63
2023/09/28 08:09:14;;;;;;;15.25;5.40;;;;;;;;;;5003731;28;20100;-64
2023/09/28 08:11:41;;;;;;;11.45;4.90;;;;;;;;;;4993405;28;20058;-64
2023/09/28 08:14:09;;;;;;;16.85;5.55;;;;;;;;;;5002102;28;20096;-64
2023/09/28 08:16:37;;;;;;;15.90;4.85;;;;;;;;;;5005199;28;20141;-64
2023/09/28 08:19:04;;;;;;;19.80;5.03;;;;;;;;;;5004281;28;20113;-66
2023/09/28 08:21:30;;;;;;;13.82;4.50;;;;;;;;;;4965650;28;20065;-61
2023/09/28 08:23:56;;;;;;;15.38;5.03;;;;;;;;;;5001774;28;20046;-65
2023/09/28 08:26:22;;;;;;;24.08;5.25;;;;;;;;;;5011743;28;21537;-65
2023/09/28 08:28:48;;;;;;;14.07;4.60;;;;;;;;;;5007555;28;20156;-65
2023/09/28 08:31:14;;;;;;;17.77;4.70;;;;;;;;;;5008539;28;20060;-66
2023/09/28 08:33:40;;;;;;;15.98;5.05;;;;;;;;;;4973288;28;20422;-66
2023/09/28 08:36:08;;;;;;;17.25;5.60;;;;;;;;;;5005707;28;20122;-67
2023/09/28 08:38:33;;;;;;;19.40;6.70;;;;;;;;;;4986414;28;20797;-67
2023/09/28 08:41:02;;;;;;;24.40;6.82;;;;;;;;;;4997625;28;20049;-64
2023/09/28 08:43:40;;;;;;;21.33;6.32;;;;;;;;;;5007640;28;20057;-66
2023/09/28 08:46:10;;;;;;;20.70;6.47;;;;;;;;;;5008636;28;20071;-65
2023/09/28 08:48:44;;;;;;;24.27;6.85;;;;;;;;;;5007291;28;20046;-65
2023/09/28 08:51:12;;;;;;;17.38;6.97;;;;;;;;;;5001880;28;20053;-65
2023/09/28 08:53:40;;;;;;;22.80;6.07;;;;;;;;;;5007102;28;20131;-65
2023/09/28 08:56:07;;;;;;;21.83;5.68;;;;;;;;;;5008906;28;20057;-65
2023/09/28 08:58:34;;;;;;;17.92;5.93;;;;;;;;;;5006167;28;20045;-65
2023/09/28 09:01:02;;;;;;;22.85;5.35;;;;;;;;;;5002785;28;20058;-65
2023/09/28 09:03:28;;;;;;;23.70;4.90;;;;;;;;;;4995262;28;20152;-65
2023/09/28 09:05:56;;;;;;;15.40;4.53;;;;;;;;;;5008917;28;20418;-67
2023/09/28 09:08:27;;;;;;;12.90;4.32;;;;;;;;;;5006931;28;20064;-65
2023/09/28 09:10:54;;;;;;;15.30;5.07;;;;;;;;;;5007274;28;20054;-66
2023/09/28 09:13:20;;;;;;;18.75;4.53;;;;;;;;;;5007910;28;20050;-67
2023/09/28 09:15:46;;;;;;;10.60;4.90;;;;;;;;;;5008820;28;20053;-66
2023/09/28 09:18:24;;;;;;;17.27;4.70;;;;;;;;;;5004830;28;20140;-65
2023/09/28 09:20:57;;;;;;;14.35;4.90;;;;;;;;;;5006750;28;20057;-65
2023/09/28 09:23:25;;;;;;;22.08;5.00;;;;;;;;;;5011542;28;20453;-68
2023/09/28 09:25:54;;;;;;;18.75;5.53;;;;;;;;;;5012278;28;20477;-64
2023/09/28 09:28:48;;;;;;;10.95;4.72;;;;;;;;;;5003719;28;21209;-66
2023/09/28 09:31:16;;;;;;;13.25;5.15;;;;;;;;;;4984757;28;20049;-65
2023/09/28 09:33:43;;;;;;;17.50;5.20;;;;;;;;;;5002117;28;20129;-65
2023/09/28 09:36:51;;;;;;;11.52;4.30;;;;;;;;;;5001075;28;20061;-66
2023/09/28 09:39:49;;;;;;;13.55;4.78;;;;;;;;;;5003373;28;20517;-65
2023/09/28 09:42:28;;;;;;;13.43;4.88;;;;;;;;;;5008003;28;20068;-65
2023/09/28 09:44:55;;;;;;;12.57;4.85;;;;;;;;;;4989707;28;20052;-66
2023/09/28 09:47:22;;;;;;;12.18;4.38;;;;;;;;;;4998786;28;20062;-65
2023/09/28 09:49:50;;;;;;;16.85;4.57;;;;;;;;;;4979642;28;20432;-65
2023/09/28 09:52:19;;;;;;;8.57;4.35;;;;;;;;;;5007169;28;20108;-66
2023/09/28 09:54:47;;;;;;;12.15;4.38;;;;;;;;;;5007514;28;20054;-64
2023/09/28 09:57:17;;;;;;;14.00;4.65;;;;;;;;;;5007649;28;20371;-65
2023/09/28 09:59:46;;;;;;;13.60;4.63;;;;;;;;;;5008595;28;20270;-66
2023/09/28 10:02:36;;;;;;;18.77;4.88;;;;;;;;;;5005474;28;20125;-68
2023/09/28 10:05:06;;;;;;;11.68;4.32;;;;;;;;;;5004208;28;20048;-68
2023/09/28 10:07:33;;;;;;;13.48;4.05;;;;;;;;;;5006979;28;20062;-67
2023/09/28 10:10:00;;;;;;;16.25;3.60;;;;;;;;;;5009645;28;20045;-67
2023/09/28 10:12:27;;;;;;;9.25;3.53;;;;;;;;;;5007906;28;20081;-66
2023/09/28 10:14:56;;;;;;;12.88;3.97;;;;;;;;;;5010411;28;20045;-69
2023/09/28 10:17:28;;;;;;;12.30;4.25;;;;;;;;;;5010572;28;20053;-67
2023/09/28 10:19:58;;;;;;;9.95;4.10;;;;;;;;;;4993104;28;20161;-66
2023/09/28 10:22:26;;;;;;;13.77;3.70;;;;;;;;;;5005035;28;20061;-71
2023/09/28 10:24:53;;;;;;;10.55;3.83;;;;;;;;;;5006863;28;20053;-70
2023/09/28 10:27:19;;;;;;;11.23;3.90;;;;;;;;;;5001398;28;20046;-71
2023/09/28 10:29:46;;;;;;;13.48;3.72;;;;;;;;;;4996026;28;20061;-69
2023/09/28 10:32:44;;;;;;;10.38;3.58;;;;;;;;;;4985951;28;20422;-72
2023/09/28 10:35:31;;;;;;;11.38;4.65;;;;;;;;;;4968382;28;20112;-69
2023/09/28 10:38:19;;;;;;;25.00;3.95;;;;;;;;;;5005320;28;20042;-72
2023/09/28 10:41:06;;;;;;;18.70;4.43;;;;;;;;;;4995330;28;20096;-71
2023/09/28 10:43:43;;;;;;;14.98;4.40;;;;;;;;;;5003074;28;20038;-69
2023/09/28 10:46:09;;;;;;;10.95;4.10;;;;;;;;;;4992186;28;20250;-69
2023/09/28 10:48:46;;;;;;;15.32;4.32;;;;;;;;;;5002211;28;20152;-69
2023/09/28 10:51:13;;;;;;;12.07;4.35;;;;;;;;;;5005210;28;20416;-67
2023/09/28 10:53:40;;;;;;;13.75;4.20;;;;;;;;;;5005157;28;20049;-72
2023/09/28 10:56:06;;;;;;;12.98;3.67;;;;;;;;;;5006545;28;20050;-68
2023/09/28 10:58:35;;;;;;;13.75;3.80;;;;;;;;;;5001597;28;20064;-70
2023/09/28 11:01:06;;;;;;;10.07;3.55;;;;;;;;;;5000737;28;20141;-68
2023/09/28 11:03:36;;;;;;;13.82;4.18;;;;;;;;;;4995204;28;20054;-69
2023/09/28 11:06:03;;;;;;;10.52;3.63;;;;;;;;;;5004808;28;20046;-70
2023/09/28 11:08:32;;;;;;;14.90;3.97;;;;;;;;;;5003961;28;20050;-69
2023/09/28 11:11:01;;;;;;;9.07;3.75;;;;;;;;;;5005972;28;20053;-69
2023/09/28 11:13:32;;;;;;;13.13;3.95;;;;;;;;;;5001128;28;20149;-67
2023/09/28 11:15:59;;;;;;;13.23;4.18;;;;;;;;;;5001078;28;20137;-69
2023/09/28 11:18:27;;;;;;;8.95;3.65;;;;;;;;;;5006060;28;20054;-68
2023/09/28 11:20:58;;;;;;;6.57;3.15;;;;;;;;;;5001084;28;20390;-70
2023/09/28 11:23:24;;;;;;;7.43;3.05;;;;;;;;;;5000136;28;20055;-71
2023/09/28 11:25:52;;;;;;;7.35;3.08;;;;;;;;;;5001580;28;20493;-68
2023/09/28 11:28:20;;;;;;;8.13;3.33;;;;;;;;;;5001267;28;20054;-70
2023/09/28 11:30:46;;;;;;;12.90;3.65;;;;;;;;;;5004267;28;20502;-69
2023/09/28 11:33:13;;;;;;;10.35;3.05;;;;;;;;;;5006098;28;20137;-70
2023/09/28 11:35:39;;;;;;;7.93;2.90;;;;;;;;;;4985085;28;20038;-70
2023/09/28 11:38:09;;;;;;;9.00;3.15;;;;;;;;;;5003446;28;20513;-71
2023/09/28 11:40:37;;;;;;;8.40;3.30;;;;;;;;;;5009617;28;20518;-71
2023/09/28 11:43:05;;;;;;;11.48;3.28;;;;;;;;;;5004244;28;20068;-68
2023/09/28 11:45:33;;;;;;;7.38;2.92;;;;;;;;;;5003411;28;20050;-69
2023/09/28 11:48:09;;;;;;;9.32;2.78;;;;;;;;;;5006597;28;20054;-69
2023/09/28 11:50:36;;;;;;;8.45;2.80;;;;;;;;;;4998938;28;20199;-69
2023/09/28 11:53:10;;;;;;;8.23;2.90;;;;;;;;;;5005173;28;20041;-70
2023/09/28 11:55:38;;;;;;;5.10;2.58;;;;;;;;;;5004685;28;20050;-70
2023/09/28 11:58:09;;;;;;;9.60;2.80;;;;;;;;;;4995867;28;20046;-70
2023/09/28 12:00:37;;;;;;;9.90;2.50;;;;;;;;;;4983165;28;20516;-69
2023/09/28 12:03:04;;;;;;;8.30;2.90;;;;;;;;;;4993627;28;20041;-70
2023/09/28 12:05:33;;;;;;;7.85;3.88;;;;;;;;;;5007952;28;20033;-70
2023/09/28 12:07:59;;;;;;;8.15;3.40;;;;;;;;;;5008739;28;20049;-69
2023/09/28 12:10:26;;;;;;;7.40;2.80;;;;;;;;;;5001131;28;20037;-70
2023/09/28 12:12:52;;;;;;;4.95;2.50;;;;;;;;;;5007262;28;20050;-70
2023/09/28 12:15:18;;;;;;;6.07;2.72;;;;;;;;;;5008513;28;20046;-69
2023/09/28 12:17:45;;;;;;;8.75;2.97;;;;;;;;;;5006864;28;20551;-69
2023/09/28 12:20:14;;;;;;;12.30;3.10;;;;;;;;;;5006865;28;20049;-70
2023/09/28 12:22:43;;;;;;;7.45;3.15;;;;;;;;;;5009292;28;20049;-72
2023/09/28 12:25:10;;;;;;;7.32;2.95;;;;;;;;;;5007242;28;20353;-70
2023/09/28 12:27:37;;;;;;;4.47;2.70;;;;;;;;;;4988523;28;20199;-70
2023/09/28 12:30:04;;;;;;;8.10;3.00;;;;;;;;;;5007255;28;20252;-70
2023/09/28 12:32:31;;;;;;;6.35;2.60;;;;;;;;;;5008833;28;20079;-69
2023/09/28 12:34:57;;;;;;;6.20;2.67;;;;;;;;;;5007513;28;20101;-69
2023/09/28 12:37:24;;;;;;;8.38;3.35;;;;;;;;;;5004508;28;20698;-70
2023/09/28 12:39:53;;;;;;;6.50;2.97;;;;;;;;;;5008177;28;20064;-71
2023/09/28 12:42:24;;;;;;;5.78;2.90;;;;;;;;;;5006090;28;20151;-69
2023/09/28 12:44:51;;;;;;;6.45;3.08;;;;;;;;;;5008199;28;20054;-70
2023/09/28 12:47:22;;;;;;;8.63;3.70;;;;;;;;;;5006061;28;20097;-70
2023/09/28 12:49:50;;;;;;;7.40;2.88;;;;;;;;;;5008048;28;20066;-72
2023/09/28 12:52:16;;;;;;;6.10;2.70;;;;;;;;;;5005013;28;20406;-70
2023/09/28 12:54:45;;;;;;;7.80;2.45;;;;;;;;;;5008049;28;20052;-69
2023/09/28 12:57:11;;;;;;;8.75;2.60;;;;;;;;;;5004459;28;20061;-70
2023/09/28 12:59:39;;;;;;;5.57;2.63;;;;;;;;;;5007598;28;20498;-69
2023/09/28 13:02:05;;;;;;;4.93;2.50;;;;;;;;;;5008252;28;20050;-71
2023/09/28 13:04:34;;;;;;;6.22;2.58;;;;;;;;;;5007311;28;20409;-71
2023/09/28 13:07:00;;;;;;;4.35;2.00;;;;;;;;;;5007878;28;20512;-70
2023/09/28 13:09:29;;;;;;;6.43;2.40;;;;;;;;;;5009929;28;20061;-71
2023/09/28 13:11:55;;;;;;;8.75;2.30;;;;;;;;;;5002785;28;20693;-70
2023/09/28 13:14:25;;;;;;;4.60;2.10;;;;;;;;;;4990195;28;20508;-70
2023/09/28 13:16:57;;;;;;;4.45;2.00;;;;;;;;;;5007751;28;20050;-70
2023/09/28 13:19:28;;;;;;;7.97;2.30;;;;;;;;;;5006880;28;20038;-68
2023/09/28 13:21:56;;;;;;;4.82;1.90;;;;;;;;;;5006721;28;20524;-70
2023/09/28 13:24:23;;;;;;;7.10;2.15;;;;;;;;;;5007940;28;20554;-69
2023/09/28 13:26:50;;;;;;;3.17;1.48;;;;;;;;;;5001802;28;20061;-70
2023/09/28 13:29:17;;;;;;;5.07;1.35;;;;;;;;;;5006450;28;20676;-69
2023/09/28 13:31:44;;;;;;;6.47;1.70;;;;;;;;;;5007369;28;20054;-70
2023/09/28 13:34:11;;;;;;;4.90;2.08;;;;;;;;;;5007002;28;20050;-70
2023/09/28 13:36:37;;;;;;;11.93;1.95;;;;;;;;;;5004973;28;20513;-71
2023/09/28 13:39:04;;;;;;;3.00;1.58;;;;;;;;;;5003209;28;20038;-69
2023/09/28 13:41:32;;;;;;;4.50;2.00;;;;;;;;;;5007786;28;20062;-74
2023/09/28 13:43:59;;;;;;;2.97;1.70;;;;;;;;;;5002127;28;20037;-70
2023/09/28 13:46:25;;;;;;;7.65;1.77;;;;;;;;;;5005611;28;20060;-70
2023/09/28 13:48:51;;;;;;;4.43;2.20;;;;;;;;;;5003698;28;20042;-70
2023/09/28 13:51:18;;;;;;;10.23;2.22;;;;;;;;;;5004092;28;20050;-70
2023/09/28 13:53:45;;;;;;;8.30;2.70;;;;;;;;;;5002316;28;20074;-70
2023/09/28 13:56:15;;;;;;;7.28;2.15;;;;;;;;;;5001763;28;20090;-70
2023/09/28 13:58:44;;;;;;;5.05;1.95;;;;;;;;;;5005857;28;20129;-70
2023/09/28 14:01:13;;;;;;;4.38;1.50;;;;;;;;;;5005169;28;20054;-71
2023/09/28 14:03:39;;;;;;;5.32;1.75;;;;;;;;;;5007662;28;20060;-70
2023/09/28 14:06:06;;;;;;;12.15;2.20;;;;;;;;;;5007718;28;20049;-71
2023/09/28 14:08:32;;;;;;;4.53;1.80;;;;;;;;;;4989239;28;20053;-70
2023/09/28 14:11:01;;;;;;;9.55;2.00;;;;;;;;;;5006716;28;20049;-72
2023/09/28 14:13:28;;;;;;;4.35;1.73;;;;;;;;;;4998181;28;20111;-70
2023/09/28 14:15:57;;;;;;;8.43;2.05;;;;;;;;;;5000636;28;20053;-69
2023/09/28 14:18:24;;;;;;;10.95;2.28;;;;;;;;;;5004961;28;20064;-71
2023/09/28 14:20:50;;;;;;;4.00;1.90;;;;;;;;;;5000100;28;20818;-70
2023/09/28 14:23:16;;;;;;;8.27;2.00;;;;;;;;;;5000876;28;20058;-69
2023/09/28 14:25:43;;;;;;;5.00;2.40;;;;;;;;;;5004067;28;20450;-70
2023/09/28 14:28:09;;;;;;;3.58;1.80;;;;;;;;;;4995983;28;20050;-70
2023/09/28 14:30:37;;;;;;;6.93;1.98;;;;;;;;;;5004982;28;20505;-71
2023/09/28 14:33:04;;;;;;;5.07;2.03;;;;;;;;;;4951757;28;1529095;-69
2023/09/28 14:35:30;;;;;;;5.43;1.67;;;;;;;;;;5004782;28;20763;-69
2023/09/28 14:37:56;;;;;;;3.38;1.80;;;;;;;;;;5001324;28;20710;-69
2023/09/28 14:40:23;;;;;;;8.57;1.90;;;;;;;;;;5006750;28;20049;-71
2023/09/28 14:42:50;;;;;;;4.07;1.60;;;;;;;;;;5006478;28;20047;-68
2023/09/28 14:45:18;;;;;;;5.70;1.60;;;;;;;;;;5006082;28;20445;-71
2023/09/28 14:47:43;;;;;;;7.70;1.90;;;;;;;;;;5005147;28;20255;-70
2023/09/28 14:50:10;;;;;;;3.42;1.70;;;;;;;;;;5005280;28;20053;-70
2023/09/28 14:52:37;;;;;;;4.57;1.60;;;;;;;;;;4995230;28;20504;-73
2023/09/28 14:55:07;;;;;;;6.70;1.80;;;;;;;;;;5002847;28;20413;-72
2023/09/28 14:57:33;;;;;;;7.80;2.03;;;;;;;;;;5004457;28;20050;-67
2023/09/28 14:59:59;;;;;;;5.85;1.85;;;;;;;;;;5000639;28;20414;-72
2023/09/28 15:02:25;;;;;;;4.63;2.03;;;;;;;;;;4980557;28;20047;-72
2023/09/28 15:04:51;;;;;;;4.45;1.73;;;;;;;;;;4994375;28;20064;-70